aviador You're here:

LROD Decoded Metar

ORADEA in ROMANIA
Report Time2018-06-23 05:30:00
UTC Time2018-06-23 05:58:39
Flight Rules vfr VFR
Wind360° at 05 kt
W.Decomp.*RWY 01: 4.9 kt HW 1.2 kt LCW
Visibility9999 m
Phenomena:N/A
Clouds:Few 014 Hf
Scattered 046 Hf
Expected CloudBase > 400 ft AGL from Temp-Dew spread
CeilingNone
Temp13°C (ISA -1)
Dew Point12°C (94% RH)
AAT11.8°C
QNH1018 hPa
Density Alt351 ft
Elevation459 ft
Report Wrong Elevation
Raw Report
METAR LROD 230530Z 36005KT 310V040 9999 FEW014 SCT046 13/12 Q1018=

Extra information for LROD:More info

Metar Taf Metar & Taf Last 4 Metars F.Rules Stats Wind Profile Meteogram Temp Stats Airport Information Weather charts Add Link Nearby VenuesMetar ALERT Operation Metar Decoded Social comments